Language: 


Des rapports , des résumés tant et plus, au choix de chacun....


Données statistiques de la station
Quotidien Rapport Décembre 13, 2017 Unités:  Anglais    Métrique   les deux
« Précédent Jour
Suivant Jour »
Quotidien Hebdomadaire Mensuel Annuel Actuel
  Haut: Bas: Moyen:
Température: TemperatureC °F 0.0 °F 5.8 °F
Pt de rosée: DewpointC °F 2.0 °F 5.8 °F
Humidité: Humidity % 0 % 96 %
Vitesse du vent: WindSpeedKMH mph 0.0 mph 13.1 mph
Rafales: WindSpeedGustKMH mph - -
Vent:- - SW
Pression: PressurehPa in 0.0 in -
Précipitation: 0.0 in    
Historical Graphs
 
 
Données statistiques pour Décembre 13, 2017
Heure Température Point de rosée Pression Vent Vitesse du vent Refales Humidité Pluie (taux horaire)
TemperatureC °F DewpointC °F PressurehPa in Calm     Humidity % HourlyPrecipMM in
00:00 2.0 °F 2.0 °F 1011.1 in South 11.6 mph 16.3 mph 98 % 0.0 in
00:05 2.0 °F 2.0 °F 1011.1 in South 14.0 mph 15.4 mph 98 % 0.0 in
00:10 2.1 °F 2.0 °F 1011.1 in South 6.4 mph 15.1 mph 98 % 0.0 in
00:15 2.1 °F 2.0 °F 1011.1 in SSW 9.7 mph 14.0 mph 98 % 0.0 in
00:20 2.1 °F 2.0 °F 1011.1 in SSW 10.5 mph 17.2 mph 98 % 0.0 in
00:25 2.2 °F 2.0 °F 1011.1 in SSW 13.7 mph 17.2 mph 98 % 0.0 in
00:30 2.3 °F 3.0 °F 1011.1 in SW 10.5 mph 19.8 mph 98 % 0.0 in
00:35 2.3 °F 3.0 °F 1011.1 in South 15.8 mph 19.8 mph 98 % 0.0 in
00:40 2.3 °F 3.0 °F 1011.1 in South 6.1 mph 16.9 mph 98 % 0.0 in
00:55 2.4 °F 3.0 °F 1010.0 in South 14.0 mph 22.4 mph 98 % 0.0 in
01:16 2.5 °F 3.0 °F 1010.0 in SSW 12.6 mph 20.6 mph 98 % 0.0 in
01:21 2.5 °F 3.0 °F 1010.0 in SSW 12.2 mph 19.8 mph 98 % 0.0 in
01:26 2.5 °F 3.0 °F 1010.0 in SSW 13.0 mph 19.8 mph 98 % 0.0 in
01:36 2.4 °F 3.0 °F 1009.0 in South 10.1 mph 20.9 mph 98 % 0.0 in
01:41 2.4 °F 3.0 °F 1009.0 in SSW 16.3 mph 24.5 mph 98 % 0.0 in
01:46 2.4 °F 3.0 °F 1009.0 in South 10.1 mph 24.5 mph 98 % 0.3 in
01:56 2.4 °F 3.0 °F 1009.0 in SSW 13.7 mph 18.0 mph 98 % 0.3 in
02:11 2.5 °F 3.0 °F 1009.0 in SSW 12.6 mph 23.8 mph 98 % 0.3 in
02:26 2.6 °F 3.0 °F 1008.0 in SSW 12.6 mph 23.3 mph 98 % 0.3 in
02:37 2.6 °F 3.0 °F 1008.0 in SSW 13.7 mph 17.2 mph 98 % 0.3 in
02:42 2.6 °F 3.0 °F 1009.0 in SSW 9.3 mph 21.2 mph 98 % 0.3 in
02:47 2.7 °F 3.0 °F 1009.0 in South 19.8 mph 21.2 mph 98 % 0.0 in
02:52 2.7 °F 3.0 °F 1009.0 in SW 9.7 mph 19.8 mph 98 % 0.0 in
02:57 2.8 °F 3.0 °F 1008.0 in South 14.0 mph 22.4 mph 98 % 0.0 in
03:08 0.0 °F 3.0 °F 0.0 in South 12.6 mph 12.6 mph 0 % 0.0 in
03:13 3.1 °F 3.0 °F 1007.0 in SSW 17.7 mph 20.1 mph 98 % 0.0 in
03:18 3.1 °F 3.0 °F 1007.0 in South 16.3 mph 23.8 mph 98 % 0.0 in
03:23 3.1 °F 3.0 °F 1007.0 in South 9.7 mph 23.8 mph 98 % 0.0 in
03:28 3.2 °F 3.0 °F 1007.0 in SSW 16.3 mph 23.0 mph 98 % 0.0 in
03:38 3.3 °F 3.0 °F 1007.0 in South 16.3 mph 20.9 mph 98 % 0.0 in
03:44 3.4 °F 3.0 °F 1007.0 in South 18.3 mph 20.1 mph 98 % 0.0 in
03:49 3.5 °F 4.0 °F 1007.0 in SSW 14.3 mph 20.1 mph 98 % 0.0 in
04:14 3.7 °F 4.0 °F 1006.0 in SSW 13.0 mph 19.5 mph 98 % 0.0 in
04:19 3.7 °F 4.0 °F 1006.0 in South 12.6 mph 20.1 mph 98 % 0.0 in
04:25 3.7 °F 4.0 °F 1006.0 in South 16.3 mph 24.8 mph 98 % 0.0 in
04:26 3.7 °F 4.0 °F 1007.0 in South 11.9 mph 24.8 mph 98 % 0.0 in
04:37 3.7 °F 4.0 °F 1007.0 in SSW 15.4 mph 21.2 mph 98 % 0.3 in
04:47 3.7 °F 4.0 °F 1006.0 in South 17.2 mph 20.1 mph 98 % 0.3 in
04:52 3.8 °F 4.0 °F 1006.0 in SSE 20.9 mph 24.5 mph 98 % 0.3 in
04:57 3.8 °F 4.0 °F 1005.0 in SSW 13.0 mph 25.3 mph 98 % 0.3 in
05:02 3.8 °F 4.0 °F 1005.0 in South 14.0 mph 25.3 mph 98 % 0.3 in
05:07 3.9 °F 4.0 °F 1005.0 in South 16.3 mph 28.0 mph 98 % 0.3 in
05:12 4.0 °F 4.0 °F 1005.0 in SSW 22.7 mph 28.0 mph 98 % 0.3 in
05:17 4.0 °F 4.0 °F 1005.0 in South 20.9 mph 22.7 mph 98 % 0.3 in
05:27 4.1 °F 4.0 °F 1005.0 in South 16.9 mph 27.0 mph 98 % 0.5 in
05:37 4.1 °F 4.0 °F 1005.0 in SSW 19.1 mph 23.8 mph 98 % 0.3 in
05:42 4.2 °F 4.0 °F 1003.9 in SSW 13.0 mph 24.5 mph 98 % 0.3 in
05:47 4.3 °F 4.0 °F 1003.9 in South 24.8 mph 28.0 mph 98 % 0.3 in
05:52 4.3 °F 4.0 °F 1003.9 in South 20.9 mph 28.0 mph 98 % 0.3 in
05:57 4.3 °F 4.0 °F 1003.9 in SSW 16.3 mph 32.8 mph 98 % 0.3 in
06:03 4.4 °F 4.0 °F 1003.9 in SSW 16.3 mph 32.8 mph 98 % 0.3 in
06:08 4.4 °F 4.0 °F 1003.9 in WSW 16.6 mph 27.4 mph 98 % 0.3 in
06:13 4.5 °F 5.0 °F 1002.9 in SSW 13.0 mph 28.8 mph 98 % 0.3 in
06:18 4.6 °F 5.0 °F 1002.9 in SSW 20.1 mph 28.8 mph 98 % 0.5 in
06:23 4.6 °F 5.0 °F 1002.9 in SSW 16.6 mph 28.5 mph 98 % 0.5 in
06:33 4.5 °F 5.0 °F 1001.9 in South 13.0 mph 33.1 mph 98 % 0.3 in
06:43 4.5 °F 5.0 °F 1002.9 in South 17.2 mph 28.5 mph 98 % 0.3 in
06:48 4.5 °F 5.0 °F 1002.9 in WSW 11.9 mph 28.5 mph 98 % 0.3 in
06:53 4.5 °F 5.0 °F 1002.9 in SSW 20.9 mph 27.4 mph 98 % 0.3 in
06:58 4.4 °F 4.0 °F 1002.9 in South 20.1 mph 25.3 mph 98 % 0.5 in
07:08 4.5 °F 5.0 °F 1002.9 in SW 12.2 mph 21.2 mph 98 % 0.5 in
07:18 4.4 °F 4.0 °F 1001.9 in SSW 16.3 mph 21.9 mph 98 % 0.3 in
07:23 4.4 °F 4.0 °F 1001.9 in South 28.5 mph 28.5 mph 98 % 0.3 in
07:28 4.4 °F 4.0 °F 1001.9 in SSW 11.6 mph 28.5 mph 98 % 0.3 in
07:30 4.4 °F 4.0 °F 1001.9 in South 14.3 mph 28.5 mph 98 % 0.3 in
07:35 4.5 °F 5.0 °F 1001.9 in SSW 13.0 mph 27.4 mph 98 % 0.3 in
07:40 4.5 °F 5.0 °F 1001.9 in SSW 19.8 mph 27.4 mph 98 % 0.3 in
07:45 4.5 °F 5.0 °F 1001.9 in SSW 13.7 mph 27.4 mph 98 % 0.3 in
07:50 4.6 °F 5.0 °F 1001.9 in SSW 12.6 mph 30.9 mph 98 % 0.3 in
07:55 4.6 °F 5.0 °F 1000.9 in South 15.4 mph 30.9 mph 98 % 0.3 in
08:00 4.7 °F 5.0 °F 1000.9 in SSW 16.3 mph 33.1 mph 98 % 0.0 in
08:05 4.7 °F 5.0 °F 1000.9 in South 16.9 mph 33.1 mph 98 % 0.0 in
08:10 4.7 °F 5.0 °F 1000.9 in South 13.0 mph 27.7 mph 98 % 0.0 in
08:15 4.7 °F 5.0 °F 1000.9 in SSW 16.3 mph 25.6 mph 98 % 0.0 in
08:21 4.7 °F 5.0 °F 1000.9 in South 12.6 mph 24.5 mph 98 % 0.0 in
08:26 4.8 °F 5.0 °F 1000.9 in SSW 12.6 mph 24.5 mph 98 % 0.0 in
08:31 4.8 °F 5.0 °F 1000.9 in SSW 11.9 mph 23.3 mph 98 % 0.0 in
08:36 4.8 °F 5.0 °F 1000.9 in SSW 13.7 mph 27.4 mph 98 % 0.0 in
08:46 5.0 °F 5.0 °F 1000.9 in WSW 14.0 mph 30.6 mph 98 % 0.0 in
08:51 5.0 °F 5.0 °F 1000.9 in SW 12.2 mph 20.1 mph 98 % 0.0 in
08:56 5.0 °F 5.0 °F 1000.9 in South 15.8 mph 20.6 mph 98 % 0.0 in
08:59 5.0 °F 5.0 °F 1000.9 in South 16.3 mph 31.4 mph 98 % 0.0 in
09:09 5.1 °F 5.0 °F 1000.9 in WSW 13.7 mph 25.6 mph 98 % 0.0 in
09:14 5.2 °F 5.0 °F 1000.9 in SSW 11.9 mph 22.4 mph 98 % 0.0 in
09:19 5.2 °F 5.0 °F 1000.9 in WSW 11.9 mph 22.4 mph 98 % 0.0 in
09:24 5.3 °F 6.0 °F 1000.9 in SSW 16.6 mph 20.9 mph 98 % 0.0 in
09:29 5.4 °F 6.0 °F 1000.9 in WSW 13.0 mph 22.4 mph 98 % 0.0 in
09:44 5.8 °F 6.0 °F 999.9 in SSW 16.3 mph 24.5 mph 98 % 0.0 in
09:49 6.0 °F 6.0 °F 999.9 in SW 17.2 mph 28.0 mph 98 % 0.0 in
10:04 6.2 °F 6.0 °F 999.9 in SW 12.6 mph 24.8 mph 98 % 0.0 in
10:15 6.4 °F 6.0 °F 999.9 in WSW 12.2 mph 21.2 mph 98 % 0.3 in
10:20 6.4 °F 6.0 °F 999.9 in WSW 17.7 mph 24.5 mph 98 % 0.3 in
10:30 6.5 °F 7.0 °F 999.9 in SSW 14.0 mph 23.8 mph 98 % 0.3 in
10:35 6.6 °F 7.0 °F 999.9 in SW 13.7 mph 23.0 mph 98 % 0.3 in
10:40 6.7 °F 7.0 °F 999.9 in SSW 12.6 mph 23.0 mph 98 % 0.3 in
10:50 6.8 °F 7.0 °F 999.9 in SW 8.7 mph 19.1 mph 98 % 0.3 in
10:55 6.8 °F 7.0 °F 999.9 in SW 13.7 mph 16.3 mph 98 % 0.3 in
11:00 6.8 °F 7.0 °F 999.9 in WSW 13.7 mph 16.3 mph 98 % 0.3 in
11:05 6.8 °F 7.0 °F 999.9 in SSW 12.2 mph 15.1 mph 98 % 0.3 in
11:10 6.8 °F 7.0 °F 999.9 in WSW 9.3 mph 15.1 mph 98 % 0.3 in
11:15 6.8 °F 7.0 °F 999.9 in WSW 10.1 mph 13.7 mph 98 % 0.0 in
11:20 6.8 °F 7.0 °F 999.9 in SSW 10.1 mph 12.2 mph 98 % 0.0 in
11:25 6.9 °F 7.0 °F 999.9 in SW 9.3 mph 12.2 mph 98 % 0.0 in
11:30 7.0 °F 7.0 °F 999.9 in SW 8.7 mph 11.6 mph 98 % 0.0 in
11:35 7.0 °F 7.0 °F 999.9 in SSW 9.3 mph 11.9 mph 98 % 0.0 in
11:40 7.0 °F 7.0 °F 999.9 in SW 12.6 mph 14.0 mph 98 % 0.0 in
11:45 7.3 °F 7.0 °F 999.9 in SSW 9.0 mph 15.4 mph 98 % 0.0 in
11:51 7.4 °F 7.0 °F 999.9 in SSW 11.9 mph 15.4 mph 98 % 0.0 in
11:56 7.4 °F 7.0 °F 999.9 in WSW 9.3 mph 15.8 mph 98 % 0.0 in
12:01 7.5 °F 8.0 °F 999.9 in SW 6.4 mph 15.8 mph 98 % 0.0 in
12:06 7.6 °F 8.0 °F 999.9 in SW 9.7 mph 13.0 mph 98 % 0.0 in
12:16 7.7 °F 8.0 °F 999.9 in SSW 9.0 mph 13.7 mph 98 % 0.0 in
12:21 7.7 °F 8.0 °F 999.9 in SW 9.7 mph 13.7 mph 98 % 0.0 in
12:26 7.8 °F 8.0 °F 998.9 in SW 8.7 mph 13.0 mph 98 % 0.0 in
12:31 7.8 °F 8.0 °F 998.9 in SW 7.6 mph 13.0 mph 98 % 0.0 in
12:36 7.8 °F 8.0 °F 998.9 in SSW 9.3 mph 13.7 mph 98 % 0.0 in
12:41 7.9 °F 8.0 °F 997.9 in WSW 9.0 mph 13.7 mph 98 % 0.0 in
12:46 7.9 °F 8.0 °F 997.9 in SW 7.2 mph 13.7 mph 98 % 0.0 in
12:56 7.9 °F 8.0 °F 998.9 in SSW 13.0 mph 16.6 mph 98 % 0.0 in
13:12 7.9 °F 8.0 °F 998.9 in SW 13.0 mph 16.3 mph 98 % 0.3 in
13:17 7.9 °F 8.0 °F 998.9 in SW 14.3 mph 15.8 mph 98 % 0.3 in
13:27 8.0 °F 8.0 °F 998.9 in WSW 13.0 mph 16.3 mph 98 % 0.3 in
13:32 8.0 °F 8.0 °F 998.9 in WSW 13.0 mph 16.9 mph 98 % 0.3 in
13:37 8.0 °F 8.0 °F 998.9 in WSW 9.0 mph 16.9 mph 98 % 0.5 in
13:42 8.0 °F 8.0 °F 997.9 in SW 9.7 mph 16.6 mph 98 % 0.5 in
13:52 7.9 °F 8.0 °F 997.9 in SSW 9.0 mph 13.0 mph 98 % 0.5 in
13:57 7.9 °F 8.0 °F 997.9 in SSW 9.0 mph 11.9 mph 98 % 0.5 in
14:02 7.9 °F 8.0 °F 997.9 in SW 10.1 mph 13.0 mph 98 % 0.5 in
14:07 7.8 °F 8.0 °F 997.9 in SW 9.7 mph 13.0 mph 98 % 0.3 in
14:12 7.8 °F 8.0 °F 997.9 in SW 9.7 mph 11.9 mph 98 % 0.5 in
14:17 7.8 °F 8.0 °F 997.9 in SSW 7.6 mph 13.0 mph 98 % 0.5 in
14:28 7.8 °F 8.0 °F 996.8 in SW 9.0 mph 11.9 mph 98 % 0.5 in
14:43 7.8 °F 8.0 °F 996.8 in SW 6.9 mph 15.8 mph 98 % 0.3 in
14:48 7.8 °F 8.0 °F 996.8 in Calm   15.8 mph 98 % 0.3 in
14:53 7.9 °F 8.0 °F 996.8 in SSW 11.9 mph 14.0 mph 98 % 0.3 in
14:58 7.9 °F 8.0 °F 996.8 in WSW 13.0 mph 14.0 mph 98 % 0.3 in
15:03 7.9 °F 8.0 °F 996.8 in SSW 11.6 mph 14.0 mph 98 % 0.3 in
15:09 7.9 °F 8.0 °F 996.8 in South 7.9 mph 16.6 mph 98 % 0.5 in
15:14 8.0 °F 8.0 °F 996.8 in SSW 10.1 mph 16.6 mph 98 % 0.3 in
15:19 8.0 °F 8.0 °F 996.8 in SSW 9.3 mph 15.4 mph 98 % 0.3 in
15:24 8.0 °F 8.0 °F 996.8 in SW 8.7 mph 14.0 mph 98 % 0.3 in
15:49 8.0 °F 8.0 °F 995.1 in SSW 6.9 mph 14.0 mph 98 % 0.3 in
15:59 8.0 °F 8.0 °F 995.1 in WSW 10.5 mph 14.0 mph 98 % 0.8 in
16:09 8.1 °F 8.0 °F 995.1 in SSW 10.5 mph 16.3 mph 98 % 0.3 in
16:19 8.1 °F 8.0 °F 995.1 in SW 10.1 mph 18.0 mph 98 % 0.3 in
16:24 8.1 °F 8.0 °F 995.1 in WSW 10.1 mph 18.0 mph 98 % 0.8 in
16:29 8.1 °F 8.0 °F 994.1 in SSW 12.6 mph 19.5 mph 98 % 1.0 in
16:34 8.1 °F 8.0 °F 994.1 in SSW 9.7 mph 19.5 mph 98 % 1.3 in
16:39 8.1 °F 8.0 °F 994.1 in South 13.7 mph 16.3 mph 98 % 1.5 in
16:44 8.1 °F 8.0 °F 994.1 in SSW 7.9 mph 16.6 mph 98 % 1.8 in
16:49 8.1 °F 8.0 °F 994.1 in SSW 13.0 mph 16.6 mph 98 % 1.8 in
16:54 8.1 °F 8.0 °F 994.1 in SSW 9.0 mph 16.9 mph 98 % 2.3 in
17:10 8.2 °F 8.0 °F 993.1 in SSW 8.7 mph 14.0 mph 98 % 2.3 in
17:20 8.2 °F 8.0 °F 993.1 in SW 7.9 mph 19.5 mph 98 % 2.5 in
17:25 8.3 °F 9.0 °F 993.1 in WSW 16.3 mph 16.3 mph 98 % 2.5 in
17:30 8.3 °F 9.0 °F 992.1 in South 13.0 mph 16.3 mph 98 % 2.5 in
17:35 8.3 °F 9.0 °F 992.1 in South 13.0 mph 16.3 mph 98 % 2.3 in
17:40 8.4 °F 9.0 °F 992.1 in SSW 17.2 mph 24.5 mph 98 % 1.8 in
17:45 8.4 °F 9.0 °F 991.1 in WSW 12.6 mph 24.5 mph 98 % 2.3 in
17:50 8.5 °F 9.0 °F 991.1 in WSW 14.8 mph 24.8 mph 98 % 1.8 in
17:55 8.5 °F 9.0 °F 991.1 in SW 12.6 mph 24.8 mph 98 % 2.8 in
18:05 8.4 °F 9.0 °F 991.1 in WSW 17.2 mph 24.5 mph 98 % 3.6 in
18:15 8.4 °F 9.0 °F 990.1 in SSW 22.7 mph 27.0 mph 98 % 4.6 in
18:25 8.4 °F 9.0 °F 990.1 in WSW 15.4 mph 26.7 mph 98 % 4.3 in
18:30 8.4 °F 9.0 °F 991.1 in SW 14.3 mph 26.7 mph 98 % 4.3 in
18:35 8.4 °F 9.0 °F 991.1 in SW 12.2 mph 22.4 mph 98 % 4.3 in
18:40 8.4 °F 9.0 °F 991.1 in WSW 16.9 mph 21.2 mph 98 % 5.8 in
18:45 8.4 °F 9.0 °F 990.1 in WSW 13.0 mph 20.1 mph 98 % 5.3 in
18:50 8.4 °F 9.0 °F 990.1 in WSW 16.3 mph 20.1 mph 98 % 5.6 in
18:55 8.5 °F 9.0 °F 990.1 in SW 15.8 mph 19.5 mph 98 % 4.6 in
19:00 8.5 °F 9.0 °F 989.1 in WSW 16.9 mph 19.5 mph 98 % 4.3 in
19:10 8.6 °F 9.0 °F 989.1 in SW 15.8 mph 21.2 mph 98 % 3.0 in
19:15 8.6 °F 9.0 °F 990.1 in WSW 21.2 mph 23.8 mph 98 % 2.5 in
19:20 8.6 °F 9.0 °F 990.1 in WSW 20.1 mph 1105.4 mph 98 % 2.5 in
19:25 8.7 °F 9.0 °F 990.1 in WSW 24.5 mph 1105.4 mph 98 % 2.3 in
19:35 8.5 °F 9.0 °F 989.1 in West 17.7 mph 48.3 mph 98 % 4.1 in
19:37 8.5 °F 9.0 °F 989.1 in West 5.8 mph 48.3 mph 98 % 4.1 in
19:42 8.4 °F 9.0 °F 990.1 in West 15.8 mph 38.1 mph 98 % 2.5 in
19:47 8.2 °F 8.0 °F 990.1 in West 14.0 mph 27.7 mph 98 % 2.3 in
19:52 8.2 °F 8.0 °F 990.1 in West 15.4 mph 27.7 mph 98 % 2.3 in
20:07 7.8 °F 8.0 °F 989.1 in WNW 20.6 mph 29.9 mph 98 % 2.3 in
20:12 7.6 °F 7.0 °F 990.1 in West 16.9 mph 29.9 mph 96 % 2.3 in
20:28 7.3 °F 7.0 °F 991.1 in West 20.6 mph 32.8 mph 95 % 2.3 in
20:33 7.2 °F 7.0 °F 991.1 in West 17.2 mph 32.8 mph 95 % 2.3 in
20:38 7.0 °F 6.0 °F 991.1 in WSW 16.3 mph 25.6 mph 95 % 0.3 in
20:43 7.0 °F 6.0 °F 991.1 in West 33.5 mph 33.5 mph 95 % 210.6 in
20:48 7.1 °F 6.0 °F 991.1 in NW 13.7 mph 33.5 mph 95 % 0.3 in
20:54 7.0 °F 6.0 °F 991.1 in WSW 17.7 mph 33.5 mph 95 % 0.3 in
20:59 6.8 °F 6.0 °F 991.1 in WNW 13.7 mph 19.5 mph 93 % 0.3 in
21:04 6.7 °F 6.0 °F 991.1 in WNW 20.9 mph 22.7 mph 91 % 0.0 in
21:09 6.5 °F 6.0 °F 991.1 in West 17.7 mph 22.7 mph 91 % 0.0 in
21:19 6.2 °F 5.0 °F 991.1 in WSW 12.6 mph 23.8 mph 90 % 0.0 in
21:24 6.1 °F 5.0 °F 991.1 in WNW 8.7 mph 26.7 mph 90 % 0.0 in
21:34 5.9 °F 5.0 °F 991.1 in West 15.8 mph 20.1 mph 89 % 0.0 in
21:39 5.7 °F 4.0 °F 991.1 in West 13.0 mph 21.2 mph 88 % 0.0 in
21:50 5.7 °F 4.0 °F 991.1 in West 9.3 mph 26.2 mph 88 % 0.0 in
21:55 5.7 °F 4.0 °F 991.1 in West 16.6 mph 26.2 mph 88 % 0.0 in
22:00 5.7 °F 4.0 °F 991.1 in SW 13.7 mph 20.9 mph 88 % 0.0 in
22:05 5.7 °F 4.0 °F 991.1 in WSW 8.7 mph 16.6 mph 88 % 0.0 in
22:10 5.7 °F 4.0 °F 991.1 in WSW 12.2 mph 13.7 mph 88 % 0.0 in
22:15 5.7 °F 4.0 °F 991.1 in WSW 11.6 mph 13.7 mph 88 % 0.0 in
22:20 5.7 °F 4.0 °F 991.1 in WSW 6.9 mph 13.7 mph 88 % 0.0 in
22:25 5.7 °F 4.0 °F 991.1 in WSW 6.4 mph 13.0 mph 88 % 0.0 in
22:30 5.7 °F 4.0 °F 991.1 in WSW 10.1 mph 13.0 mph 88 % 0.0 in
22:35 5.7 °F 4.0 °F 991.1 in WSW 9.7 mph 11.9 mph 88 % 0.0 in
22:40 5.7 °F 4.0 °F 991.1 in WSW 9.7 mph 11.9 mph 88 % 0.0 in
22:45 5.7 °F 4.0 °F 991.1 in Calm   13.7 mph 88 % 0.0 in
22:50 5.7 °F 4.0 °F 991.1 in WSW 5.8 mph 13.7 mph 88 % 0.0 in
23:00 5.7 °F 4.0 °F 991.1 in WSW 8.7 mph 10.5 mph 88 % 0.0 in
23:05 4.3 °F 3.0 °F 991.1 in WSW 13.0 mph 13.0 mph 92 % 0.0 in
23:15 4.4 °F 3.0 °F 991.1 in WSW 7.9 mph 15.4 mph 93 % 0.0 in
23:20 4.4 °F 3.0 °F 991.1 in WSW 10.1 mph 14.3 mph 93 % 0.0 in
23:25 0.0 °F 4.0 °F 989.1 in WSW 8.7 mph 11.9 mph 0 % 0.0 in
23:36 4.6 °F 4.0 °F 989.1 in SW 6.4 mph 10.1 mph 94 % 0.0 in
23:46 4.6 °F 4.0 °F 989.1 in Calm   9.0 mph 94 % 0.0 in
23:56 4.9 °F 4.0 °F 989.1 in SSW 9.7 mph 13.7 mph 94 % 0.0 in
Le Gheer Warneton
Courtoisie de Weather Underground - 2 mb

Mise a jour : 21/02/2018 02:34:11
Généré par Cumulus 1.9.4 (1099)